sensor_id;sensor_type;location;lat;lon;timestamp;pressure;altitude;pressure_sealevel;temperature;humidity
75740;BME280;64357;51.344;6.550;2023-06-10T00:00:14;100926.66;;;21.96;53.91
75740;BME280;64357;51.344;6.550;2023-06-10T00:02:40;100903.69;;;21.72;54.17
75740;BME280;64357;51.344;6.550;2023-06-10T00:05:07;100921.75;;;21.86;54.07
75740;BME280;64357;51.344;6.550;2023-06-10T00:07:35;100909.31;;;21.80;54.28
75740;BME280;64357;51.344;6.550;2023-06-10T00:10:07;100926.81;;;21.82;54.53
75740;BME280;64357;51.344;6.550;2023-06-10T00:12:32;100929.88;;;21.75;55.10
75740;BME280;64357;51.344;6.550;2023-06-10T00:15:03;100926.28;;;21.73;54.62
75740;BME280;64357;51.344;6.550;2023-06-10T00:17:30;100920.81;;;21.69;55.10
75740;BME280;64357;51.344;6.550;2023-06-10T00:19:55;100926.75;;;21.66;55.27
75740;BME280;64357;51.344;6.550;2023-06-10T00:22:23;100919.31;;;21.58;55.71
75740;BME280;64357;51.344;6.550;2023-06-10T00:24:55;100917.44;;;21.55;55.36
75740;BME280;64357;51.344;6.550;2023-06-10T00:27:21;100919.22;;;21.56;55.63
75740;BME280;64357;51.344;6.550;2023-06-10T00:29:47;100910.28;;;21.51;55.85
75740;BME280;64357;51.344;6.550;2023-06-10T00:32:12;100912.53;;;21.45;55.85
75740;BME280;64357;51.344;6.550;2023-06-10T00:34:40;100918.13;;;21.36;56.45
75740;BME280;64357;51.344;6.550;2023-06-10T00:37:08;100903.66;;;21.26;56.81
75740;BME280;64357;51.344;6.550;2023-06-10T00:39:33;100920.13;;;21.27;57.14
75740;BME280;64357;51.344;6.550;2023-06-10T00:42:01;100912.19;;;21.24;57.18
75740;BME280;64357;51.344;6.550;2023-06-10T00:44:27;100923.13;;;21.18;57.50
75740;BME280;64357;51.344;6.550;2023-06-10T00:46:52;100923.19;;;21.20;57.72
75740;BME280;64357;51.344;6.550;2023-06-10T00:49:23;100925.16;;;21.09;58.73
75740;BME280;64357;51.344;6.550;2023-06-10T00:51:49;100919.25;;;20.97;58.97
75740;BME280;64357;51.344;6.550;2023-06-10T00:54:20;100920.16;;;20.83;59.77
75740;BME280;64357;51.344;6.550;2023-06-10T00:56:48;100924.63;;;20.70;59.69
75740;BME280;64357;51.344;6.550;2023-06-10T00:59:15;100919.75;;;20.62;60.68
75740;BME280;64357;51.344;6.550;2023-06-10T01:01:44;100922.06;;;20.57;60.67
75740;BME280;64357;51.344;6.550;2023-06-10T01:04:13;100922.06;;;20.57;60.68
75740;BME280;64357;51.344;6.550;2023-06-10T01:07:00;100925.19;;;20.52;60.76
75740;BME280;64357;51.344;6.550;2023-06-10T01:09:47;100923.22;;;20.47;60.97
75740;BME280;64357;51.344;6.550;2023-06-10T01:12:26;100926.22;;;20.40;61.27
75740;BME280;64357;51.344;6.550;2023-06-10T01:14:58;100941.78;;;20.40;61.19
75740;BME280;64357;51.344;6.550;2023-06-10T01:17:52;100919.34;;;20.28;61.28
75740;BME280;64357;51.344;6.550;2023-06-10T01:20:21;100931.44;;;20.27;61.64
75740;BME280;64357;51.344;6.550;2023-06-10T01:22:46;100934.53;;;20.21;61.92
75740;BME280;64357;51.344;6.550;2023-06-10T01:25:13;100929.09;;;20.17;62.02
75740;BME280;64357;51.344;6.550;2023-06-10T01:27:40;100937.84;;;20.19;61.92
75740;BME280;64357;51.344;6.550;2023-06-10T01:30:12;100940.63;;;20.22;61.68
75740;BME280;64357;51.344;6.550;2023-06-10T01:32:45;100939.63;;;20.20;61.85
75740;BME280;64357;51.344;6.550;2023-06-10T01:35:17;100933.78;;;20.09;62.10
75740;BME280;64357;51.344;6.550;2023-06-10T01:37:46;100946.22;;;20.15;62.39
75740;BME280;64357;51.344;6.550;2023-06-10T01:40:12;100945.84;;;20.09;62.35
75740;BME280;64357;51.344;6.550;2023-06-10T01:42:38;100943.84;;;20.05;63.08
75740;BME280;64357;51.344;6.550;2023-06-10T01:45:07;100945.56;;;20.04;62.56
75740;BME280;64357;51.344;6.550;2023-06-10T01:47:38;100948.56;;;19.97;63.24
75740;BME280;64357;51.344;6.550;2023-06-10T01:50:04;100943.72;;;19.88;63.33
75740;BME280;64357;51.344;6.550;2023-06-10T01:52:32;100941.50;;;19.81;63.74
75740;BME280;64357;51.344;6.550;2023-06-10T01:54:57;100944.09;;;19.81;64.03
75740;BME280;64357;51.344;6.550;2023-06-10T01:57:26;100951.28;;;19.72;64.51
75740;BME280;64357;51.344;6.550;2023-06-10T01:59:54;100939.09;;;19.58;64.42
75740;BME280;64357;51.344;6.550;2023-06-10T02:02:22;100951.41;;;19.60;64.73
75740;BME280;64357;51.344;6.550;2023-06-10T02:04:47;100949.19;;;19.53;64.83
75740;BME280;64357;51.344;6.550;2023-06-10T02:07:33;100933.22;;;19.47;65.18
75740;BME280;64357;51.344;6.550;2023-06-10T02:10:01;100937.47;;;19.58;64.74
75740;BME280;64357;51.344;6.550;2023-06-10T02:12:26;100930.31;;;19.56;65.04
75740;BME280;64357;51.344;6.550;2023-06-10T02:15:01;100948.63;;;19.70;64.63
75740;BME280;64357;51.344;6.550;2023-06-10T02:17:27;100933.72;;;19.55;65.18
75740;BME280;64357;51.344;6.550;2023-06-10T02:19:53;100936.00;;;19.50;65.19
75740;BME280;64357;51.344;6.550;2023-06-10T02:22:23;100961.44;;;19.56;65.60
75740;BME280;64357;51.344;6.550;2023-06-10T02:24:49;100953.97;;;19.47;65.98
75740;BME280;64357;51.344;6.550;2023-06-10T02:27:17;100956.06;;;19.53;65.95
75740;BME280;64357;51.344;6.550;2023-06-10T02:29:45;100954.22;;;19.52;65.79
75740;BME280;64357;51.344;6.550;2023-06-10T02:32:11;100967.59;;;19.58;66.20
75740;BME280;64357;51.344;6.550;2023-06-10T02:34:36;100960.13;;;19.49;66.52
75740;BME280;64357;51.344;6.550;2023-06-10T02:37:02;100957.53;;;19.36;67.05
75740;BME280;64357;51.344;6.550;2023-06-10T02:39:30;100955.03;;;19.37;66.87
75740;BME280;64357;51.344;6.550;2023-06-10T02:41:55;100965.59;;;19.40;67.13
75740;BME280;64357;51.344;6.550;2023-06-10T02:44:20;100963.88;;;19.28;67.71
75740;BME280;64357;51.344;6.550;2023-06-10T02:46:46;100953.13;;;19.22;67.75
75740;BME280;64357;51.344;6.550;2023-06-10T02:49:12;100965.97;;;19.20;67.74
75740;BME280;64357;51.344;6.550;2023-06-10T02:51:38;100967.75;;;19.21;68.38
75740;BME280;64357;51.344;6.550;2023-06-10T02:54:03;100958.44;;;19.23;67.83
75740;BME280;64357;51.344;6.550;2023-06-10T02:56:29;100958.31;;;19.22;68.33
75740;BME280;64357;51.344;6.550;2023-06-10T02:58:55;100954.41;;;19.15;68.60
75740;BME280;64357;51.344;6.550;2023-06-10T03:01:21;100950.94;;;19.14;68.54
75740;BME280;64357;51.344;6.550;2023-06-10T03:03:49;100958.50;;;19.11;68.72
75740;BME280;64357;51.344;6.550;2023-06-10T03:06:15;100960.97;;;19.10;68.92
75740;BME280;64357;51.344;6.550;2023-06-10T03:08:41;100966.94;;;19.09;69.42
75740;BME280;64357;51.344;6.550;2023-06-10T03:11:07;100961.75;;;18.96;69.99
75740;BME280;64357;51.344;6.550;2023-06-10T03:13:32;100959.22;;;18.84;70.45
75740;BME280;64357;51.344;6.550;2023-06-10T03:16:00;100951.63;;;18.74;71.13
75740;BME280;64357;51.344;6.550;2023-06-10T03:18:30;100968.84;;;18.73;71.69
75740;BME280;64357;51.344;6.550;2023-06-10T03:20:56;100965.91;;;18.69;71.56
75740;BME280;64357;51.344;6.550;2023-06-10T03:23:25;100972.66;;;18.67;72.11
75740;BME280;64357;51.344;6.550;2023-06-10T03:25:52;100965.38;;;18.61;72.72
75740;BME280;64357;51.344;6.550;2023-06-10T03:28:20;100963.81;;;18.51;72.80
75740;BME280;64357;51.344;6.550;2023-06-10T03:30:48;100957.91;;;18.41;73.55
75740;BME280;64357;51.344;6.550;2023-06-10T03:33:13;100973.75;;;18.45;73.64
75740;BME280;64357;51.344;6.550;2023-06-10T03:35:39;100974.81;;;18.35;74.34
75740;BME280;64357;51.344;6.550;2023-06-10T03:38:10;100977.88;;;18.30;74.53
75740;BME280;64357;51.344;6.550;2023-06-10T03:40:36;100976.50;;;18.23;74.87
75740;BME280;64357;51.344;6.550;2023-06-10T03:43:06;100978.19;;;18.23;74.97
75740;BME280;64357;51.344;6.550;2023-06-10T03:45:32;100979.31;;;18.26;74.93
75740;BME280;64357;51.344;6.550;2023-06-10T03:47:57;100979.56;;;18.29;74.72
75740;BME280;64357;51.344;6.550;2023-06-10T03:50:23;100986.09;;;18.24;74.65
75740;BME280;64357;51.344;6.550;2023-06-10T03:52:50;100986.09;;;18.24;74.88
75740;BME280;64357;51.344;6.550;2023-06-10T03:55:16;100991.03;;;18.21;74.95
75740;BME280;64357;51.344;6.550;2023-06-10T03:57:42;100988.00;;;18.15;75.41
75740;BME280;64357;51.344;6.550;2023-06-10T04:00:07;100984.28;;;18.11;76.11
75740;BME280;64357;51.344;6.550;2023-06-10T04:02:37;100993.41;;;18.18;75.73
75740;BME280;64357;51.344;6.550;2023-06-10T04:05:02;100992.28;;;18.15;76.28
75740;BME280;64357;51.344;6.550;2023-06-10T04:07:28;100997.44;;;18.15;76.59
75740;BME280;64357;51.344;6.550;2023-06-10T04:09:54;100996.31;;;18.11;76.98
75740;BME280;64357;51.344;6.550;2023-06-10T04:12:19;100992.53;;;18.06;77.17
75740;BME280;64357;51.344;6.550;2023-06-10T04:14:44;100988.03;;;18.03;77.24
75740;BME280;64357;51.344;6.550;2023-06-10T04:17:11;100982.94;;;18.05;77.38
75740;BME280;64357;51.344;6.550;2023-06-10T04:19:37;100989.47;;;18.00;77.14
75740;BME280;64357;51.344;6.550;2023-06-10T04:22:02;101000.28;;;18.06;77.16
75740;BME280;64357;51.344;6.550;2023-06-10T04:24:28;101003.19;;;18.10;76.98
75740;BME280;64357;51.344;6.550;2023-06-10T04:26:54;101003.50;;;18.15;76.67
75740;BME280;64357;51.344;6.550;2023-06-10T04:29:19;101004.66;;;18.19;76.62
75740;BME280;64357;51.344;6.550;2023-06-10T04:31:45;101004.66;;;18.19;76.36
75740;BME280;64357;51.344;6.550;2023-06-10T04:34:12;100998.56;;;18.18;76.78
75740;BME280;64357;51.344;6.550;2023-06-10T04:36:38;101018.34;;;18.29;76.69
75740;BME280;64357;51.344;6.550;2023-06-10T04:39:06;101009.09;;;18.33;76.35
75740;BME280;64357;51.344;6.550;2023-06-10T04:41:31;101019.97;;;18.41;76.72
75740;BME280;64357;51.344;6.550;2023-06-10T04:43:57;101008.28;;;18.46;76.43
75740;BME280;64357;51.344;6.550;2023-06-10T04:46:23;101008.03;;;18.54;76.34
75740;BME280;64357;51.344;6.550;2023-06-10T04:48:48;101006.31;;;18.67;75.57
75740;BME280;64357;51.344;6.550;2023-06-10T04:51:16;101005.88;;;18.72;75.97
75740;BME280;64357;51.344;6.550;2023-06-10T04:53:44;101004.69;;;18.80;75.84
75740;BME280;64357;51.344;6.550;2023-06-10T04:56:10;100993.66;;;18.83;75.77
75740;BME280;64357;51.344;6.550;2023-06-10T04:58:35;101001.16;;;18.91;75.55
75740;BME280;64357;51.344;6.550;2023-06-10T05:01:00;101009.84;;;19.05;75.12
75740;BME280;64357;51.344;6.550;2023-06-10T05:03:29;100997.81;;;19.06;75.02
75740;BME280;64357;51.344;6.550;2023-06-10T05:05:54;101008.41;;;19.22;74.44
75740;BME280;64357;51.344;6.550;2023-06-10T05:08:24;101003.34;;;19.24;74.05
75740;BME280;64357;51.344;6.550;2023-06-10T05:10:49;100994.69;;;19.36;73.96
75740;BME280;64357;51.344;6.550;2023-06-10T05:13:16;100997.88;;;19.45;73.44
75740;BME280;64357;51.344;6.550;2023-06-10T05:15:42;101003.78;;;19.56;72.82
75740;BME280;64357;51.344;6.550;2023-06-10T05:18:11;101011.41;;;19.66;72.53
75740;BME280;64357;51.344;6.550;2023-06-10T05:20:41;101010.81;;;19.70;72.54
75740;BME280;64357;51.344;6.550;2023-06-10T05:23:07;101002.25;;;19.72;72.89
75740;BME280;64357;51.344;6.550;2023-06-10T05:25:32;101026.06;;;19.79;71.77
75740;BME280;64357;51.344;6.550;2023-06-10T05:27:58;101008.22;;;19.84;71.51
75740;BME280;64357;51.344;6.550;2023-06-10T05:30:23;101023.47;;;19.92;71.78
75740;BME280;64357;51.344;6.550;2023-06-10T05:32:53;101012.81;;;19.88;71.38
75740;BME280;64357;51.344;6.550;2023-06-10T05:35:18;101019.88;;;20.04;70.68
75740;BME280;64357;51.344;6.550;2023-06-10T05:37:43;101010.22;;;20.01;70.50
75740;BME280;64357;51.344;6.550;2023-06-10T05:40:10;101014.56;;;20.15;70.29
75740;BME280;64357;51.344;6.550;2023-06-10T05:42:35;101013.00;;;20.17;69.49
75740;BME280;64357;51.344;6.550;2023-06-10T05:45:05;101002.88;;;20.22;69.34
75740;BME280;64357;51.344;6.550;2023-06-10T05:47:31;101013.63;;;20.28;69.05
75740;BME280;64357;51.344;6.550;2023-06-10T05:50:03;101018.91;;;20.43;68.77
75740;BME280;64357;51.344;6.550;2023-06-10T05:52:38;101018.34;;;20.47;68.41
75740;BME280;64357;51.344;6.550;2023-06-10T05:55:05;101018.53;;;20.50;68.02
75740;BME280;64357;51.344;6.550;2023-06-10T05:57:31;101010.22;;;20.42;67.48
75740;BME280;64357;51.344;6.550;2023-06-10T05:59:59;101022.09;;;20.65;67.92
75740;BME280;64357;51.344;6.550;2023-06-10T06:02:25;101017.06;;;20.68;67.32
75740;BME280;64357;51.344;6.550;2023-06-10T06:04:52;101016.69;;;20.62;67.09
75740;BME280;64357;51.344;6.550;2023-06-10T06:07:18;101019.72;;;20.83;66.30
75740;BME280;64357;51.344;6.550;2023-06-10T06:09:46;101022.59;;;20.88;65.62
75740;BME280;64357;51.344;6.550;2023-06-10T06:12:11;101017.41;;;21.02;65.05
75740;BME280;64357;51.344;6.550;2023-06-10T06:14:39;101021.28;;;21.09;64.70
75740;BME280;64357;51.344;6.550;2023-06-10T06:17:15;101015.28;;;21.10;63.98
75740;BME280;64357;51.344;6.550;2023-06-10T06:19:41;101015.38;;;21.12;63.96
75740;BME280;64357;51.344;6.550;2023-06-10T06:22:24;101008.94;;;21.20;63.75
75740;BME280;64357;51.344;6.550;2023-06-10T06:24:49;101011.44;;;21.18;63.34
75740;BME280;64357;51.344;6.550;2023-06-10T06:27:15;101001.09;;;21.33;63.01
75740;BME280;64357;51.344;6.550;2023-06-10T06:29:41;101020.72;;;21.43;62.86
75740;BME280;64357;51.344;6.550;2023-06-10T06:32:06;101024.03;;;21.55;62.49
75740;BME280;64357;51.344;6.550;2023-06-10T06:34:34;101029.13;;;21.68;61.60
75740;BME280;64357;51.344;6.550;2023-06-10T06:37:00;101028.97;;;21.65;61.57
75740;BME280;64357;51.344;6.550;2023-06-10T06:39:25;101019.38;;;21.64;61.69
75740;BME280;64357;51.344;6.550;2023-06-10T06:41:53;101024.19;;;21.73;61.29
75740;BME280;64357;51.344;6.550;2023-06-10T06:44:18;101037.28;;;21.89;61.07
75740;BME280;64357;51.344;6.550;2023-06-10T06:46:44;101024.97;;;21.87;60.61
75740;BME280;64357;51.344;6.550;2023-06-10T06:49:09;101030.88;;;22.14;60.08
75740;BME280;64357;51.344;6.550;2023-06-10T06:51:42;101029.03;;;22.27;59.32
75740;BME280;64357;51.344;6.550;2023-06-10T06:57:01;101007.66;;;22.33;57.91
75740;BME280;64357;51.344;6.550;2023-06-10T06:59:27;101028.81;;;22.39;57.32
75740;BME280;64357;51.344;6.550;2023-06-10T07:01:52;101021.44;;;22.47;57.38
75740;BME280;64357;51.344;6.550;2023-06-10T07:04:19;101035.28;;;22.78;55.07
75740;BME280;64357;51.344;6.550;2023-06-10T07:06:49;101038.41;;;23.04;53.85
75740;BME280;64357;51.344;6.550;2023-06-10T07:09:14;101044.03;;;24.15;51.65
75740;BME280;64357;51.344;6.550;2023-06-10T07:11:42;101044.63;;;25.21;48.55
75740;BME280;64357;51.344;6.550;2023-06-10T07:14:10;101031.13;;;25.94;46.45
75740;BME280;64357;51.344;6.550;2023-06-10T07:16:35;101055.50;;;26.57;44.06
75740;BME280;64357;51.344;6.550;2023-06-10T07:19:03;101054.75;;;26.62;42.76
75740;BME280;64357;51.344;6.550;2023-06-10T07:21:32;101053.00;;;27.08;42.06
75740;BME280;64357;51.344;6.550;2023-06-10T07:24:02;101057.88;;;27.47;41.89
75740;BME280;64357;51.344;6.550;2023-06-10T07:26:27;101054.97;;;27.14;42.41
75740;BME280;64357;51.344;6.550;2023-06-10T07:28:55;101038.94;;;27.30;41.72
75740;BME280;64357;51.344;6.550;2023-06-10T07:31:23;101059.28;;;27.87;40.35
75740;BME280;64357;51.344;6.550;2023-06-10T07:33:51;101048.72;;;28.14;40.53
75740;BME280;64357;51.344;6.550;2023-06-10T07:36:19;101047.75;;;27.83;39.92
75740;BME280;64357;51.344;6.550;2023-06-10T07:38:47;101046.44;;;28.25;39.44
75740;BME280;64357;51.344;6.550;2023-06-10T07:41:13;101043.16;;;28.03;39.95
75740;BME280;64357;51.344;6.550;2023-06-10T07:43:41;101046.56;;;28.28;38.49
75740;BME280;64357;51.344;6.550;2023-06-10T07:46:17;101049.00;;;28.22;38.71
75740;BME280;64357;51.344;6.550;2023-06-10T07:49:11;101051.44;;;27.63;39.07
75740;BME280;64357;51.344;6.550;2023-06-10T07:51:51;101027.00;;;28.47;38.59
75740;BME280;64357;51.344;6.550;2023-06-10T07:54:23;101030.19;;;28.36;37.63
75740;BME280;64357;51.344;6.550;2023-06-10T07:57:09;101041.72;;;29.00;37.48
75740;BME280;64357;51.344;6.550;2023-06-10T07:59:41;101028.00;;;28.50;37.47
75740;BME280;64357;51.344;6.550;2023-06-10T08:02:09;101025.72;;;28.62;36.97
75740;BME280;64357;51.344;6.550;2023-06-10T08:04:36;101022.44;;;28.39;37.53
75740;BME280;64357;51.344;6.550;2023-06-10T08:07:05;101026.31;;;29.14;35.94
75740;BME280;64357;51.344;6.550;2023-06-10T08:09:39;101042.75;;;29.05;36.50
75740;BME280;64357;51.344;6.550;2023-06-10T08:12:15;101024.06;;;28.96;35.85
75740;BME280;64357;51.344;6.550;2023-06-10T08:14:51;101034.31;;;28.87;35.61
75740;BME280;64357;51.344;6.550;2023-06-10T08:17:17;101026.09;;;29.05;36.07
75740;BME280;64357;51.344;6.550;2023-06-10T08:19:48;101052.59;;;28.82;36.21
75740;BME280;64357;51.344;6.550;2023-06-10T08:22:17;101043.06;;;29.16;36.35
75740;BME280;64357;51.344;6.550;2023-06-10T08:24:45;101057.44;;;29.29;34.99
75740;BME280;64357;51.344;6.550;2023-06-10T08:27:10;101045.34;;;29.68;34.55
75740;BME280;64357;51.344;6.550;2023-06-10T08:29:36;101035.28;;;29.88;34.01
75740;BME280;64357;51.344;6.550;2023-06-10T08:32:08;101019.84;;;29.01;34.90
75740;BME280;64357;51.344;6.550;2023-06-10T08:34:34;101049.25;;;29.19;34.84
75740;BME280;64357;51.344;6.550;2023-06-10T08:37:01;101040.72;;;29.96;33.51
75740;BME280;64357;51.344;6.550;2023-06-10T08:39:34;101047.44;;;30.59;32.60
75740;BME280;64357;51.344;6.550;2023-06-10T08:44:32;101051.59;;;30.47;33.01
75740;BME280;64357;51.344;6.550;2023-06-10T08:47:13;101053.56;;;30.97;32.40
75740;BME280;64357;51.344;6.550;2023-06-10T08:50:05;101053.31;;;30.85;32.42
75740;BME280;64357;51.344;6.550;2023-06-10T08:52:45;101048.06;;;30.86;32.22
75740;BME280;64357;51.344;6.550;2023-06-10T08:55:46;101041.00;;;31.30;31.39
75740;BME280;64357;51.344;6.550;2023-06-10T08:58:18;101048.53;;;31.11;31.40
75740;BME280;64357;51.344;6.550;2023-06-10T09:00:44;101049.59;;;31.67;30.75
75740;BME280;64357;51.344;6.550;2023-06-10T09:03:13;101043.63;;;31.79;31.51
75740;BME280;64357;51.344;6.550;2023-06-10T09:05:38;101049.31;;;32.03;30.71
75740;BME280;64357;51.344;6.550;2023-06-10T09:08:06;101042.31;;;32.07;29.42
75740;BME280;64357;51.344;6.550;2023-06-10T09:10:32;101050.19;;;32.02;29.94
75740;BME280;64357;51.344;6.550;2023-06-10T09:13:00;101046.16;;;32.30;29.46
75740;BME280;64357;51.344;6.550;2023-06-10T09:15:32;101047.59;;;32.68;28.82
75740;BME280;64357;51.344;6.550;2023-06-10T09:17:59;101046.94;;;32.23;29.35
75740;BME280;64357;51.344;6.550;2023-06-10T09:20:25;101038.84;;;32.75;28.83
75740;BME280;64357;51.344;6.550;2023-06-10T09:22:53;101030.56;;;32.46;28.66
75740;BME280;64357;51.344;6.550;2023-06-10T09:25:38;101016.47;;;31.88;29.82
75740;BME280;64357;51.344;6.550;2023-06-10T09:28:15;101038.84;;;32.13;30.01
75740;BME280;64357;51.344;6.550;2023-06-10T09:30:41;101015.91;;;32.08;29.72
75740;BME280;64357;51.344;6.550;2023-06-10T09:33:15;101019.63;;;32.23;28.67
75740;BME280;64357;51.344;6.550;2023-06-10T09:35:47;101027.84;;;32.41;28.46
75740;BME280;64357;51.344;6.550;2023-06-10T09:38:43;101035.84;;;32.46;28.88
75740;BME280;64357;51.344;6.550;2023-06-10T09:41:34;101042.94;;;33.21;27.39
75740;BME280;64357;51.344;6.550;2023-06-10T09:44:06;101035.81;;;33.15;27.53
75740;BME280;64357;51.344;6.550;2023-06-10T09:46:47;101012.38;;;32.73;27.84
75740;BME280;64357;51.344;6.550;2023-06-10T09:49:27;101005.56;;;32.92;27.54
75740;BME280;64357;51.344;6.550;2023-06-10T09:51:59;101016.38;;;32.42;27.87
75740;BME280;64357;51.344;6.550;2023-06-10T09:54:34;101022.41;;;32.99;27.46
75740;BME280;64357;51.344;6.550;2023-06-10T09:57:09;101008.22;;;33.89;26.36
75740;BME280;64357;51.344;6.550;2023-06-10T09:59:40;101017.69;;;33.58;25.98
75740;BME280;64357;51.344;6.550;2023-06-10T10:02:16;101010.03;;;33.92;25.90
75740;BME280;64357;51.344;6.550;2023-06-10T10:10:51;101003.81;;;33.90;25.96
75740;BME280;64357;51.344;6.550;2023-06-10T10:13:27;101028.09;;;33.37;25.94
75740;BME280;64357;51.344;6.550;2023-06-10T10:16:21;101010.47;;;33.42;26.41
75740;BME280;64357;51.344;6.550;2023-06-10T10:19:00;101016.63;;;33.36;26.33
75740;BME280;64357;51.344;6.550;2023-06-10T10:21:35;101018.03;;;33.97;26.09
75740;BME280;64357;51.344;6.550;2023-06-10T10:24:09;101010.63;;;33.56;26.31
75740;BME280;64357;51.344;6.550;2023-06-10T10:26:38;101008.25;;;33.92;26.17
75740;BME280;64357;51.344;6.550;2023-06-10T10:29:33;101020.34;;;33.58;25.62
75740;BME280;64357;51.344;6.550;2023-06-10T10:32:03;100991.97;;;33.45;26.06
75740;BME280;64357;51.344;6.550;2023-06-10T10:37:13;100985.81;;;33.45;26.01
75740;BME280;64357;51.344;6.550;2023-06-10T10:39:40;100984.81;;;33.36;26.12
75740;BME280;64357;51.344;6.550;2023-06-10T10:42:16;100995.69;;;33.67;26.02
75740;BME280;64357;51.344;6.550;2023-06-10T10:44:46;100988.63;;;33.66;25.08
75740;BME280;64357;51.344;6.550;2023-06-10T10:48:04;100974.53;;;33.73;26.35
75740;BME280;64357;51.344;6.550;2023-06-10T10:50:34;100993.34;;;34.08;24.94
75740;BME280;64357;51.344;6.550;2023-06-10T10:53:01;100984.56;;;34.23;24.58
75740;BME280;64357;51.344;6.550;2023-06-10T10:55:28;100975.72;;;34.22;24.26
75740;BME280;64357;51.344;6.550;2023-06-10T10:58:05;100998.31;;;33.61;25.65
75740;BME280;64357;51.344;6.550;2023-06-10T11:00:35;100990.44;;;33.76;24.99
75740;BME280;64357;51.344;6.550;2023-06-10T11:05:48;100961.38;;;33.87;25.69
75740;BME280;64357;51.344;6.550;2023-06-10T11:11:00;100979.28;;;34.26;24.17
75740;BME280;64357;51.344;6.550;2023-06-10T11:13:26;100971.34;;;34.26;23.88
75740;BME280;64357;51.344;6.550;2023-06-10T11:15:53;100972.06;;;33.98;22.80
75740;BME280;64357;51.344;6.550;2023-06-10T11:20:54;100971.00;;;33.77;24.73
75740;BME280;64357;51.344;6.550;2023-06-10T11:31:31;100968.88;;;34.75;22.61
75740;BME280;64357;51.344;6.550;2023-06-10T11:34:00;100968.09;;;34.96;22.96
75740;BME280;64357;51.344;6.550;2023-06-10T11:36:26;100964.75;;;33.60;24.00
75740;BME280;64357;51.344;6.550;2023-06-10T11:39:00;100962.84;;;33.45;24.04
75740;BME280;64357;51.344;6.550;2023-06-10T11:41:26;100945.56;;;33.96;22.89
75740;BME280;64357;51.344;6.550;2023-06-10T11:43:53;100967.63;;;33.92;22.66
75740;BME280;64357;51.344;6.550;2023-06-10T11:46:21;100955.19;;;33.85;23.24
75740;BME280;64357;51.344;6.550;2023-06-10T11:48:51;100962.38;;;34.01;23.24
75740;BME280;64357;51.344;6.550;2023-06-10T11:51:18;100945.84;;;33.22;23.98
75740;BME280;64357;51.344;6.550;2023-06-10T11:53:48;100956.44;;;33.20;23.86
75740;BME280;64357;51.344;6.550;2023-06-10T11:56:28;100949.16;;;32.98;24.65
75740;BME280;64357;51.344;6.550;2023-06-10T11:58:59;100948.81;;;33.58;24.49
75740;BME280;64357;51.344;6.550;2023-06-10T12:01:29;100950.56;;;33.56;23.95
75740;BME280;64357;51.344;6.550;2023-06-10T12:04:03;100944.38;;;33.56;23.60
75740;BME280;64357;51.344;6.550;2023-06-10T12:06:45;100933.78;;;33.54;24.24
75740;BME280;64357;51.344;6.550;2023-06-10T12:09:28;100937.63;;;32.93;23.45
75740;BME280;64357;51.344;6.550;2023-06-10T12:12:02;100935.16;;;33.11;24.22
75740;BME280;64357;51.344;6.550;2023-06-10T12:19:55;100922.28;;;33.49;23.88
75740;BME280;64357;51.344;6.550;2023-06-10T12:22:20;100916.41;;;33.98;23.92
75740;BME280;64357;51.344;6.550;2023-06-10T12:27:27;100925.44;;;33.10;24.10
75740;BME280;64357;51.344;6.550;2023-06-10T12:29:55;100926.53;;;33.33;24.03
75740;BME280;64357;51.344;6.550;2023-06-10T12:32:20;100935.59;;;33.64;22.97
75740;BME280;64357;51.344;6.550;2023-06-10T12:34:50;100924.75;;;33.34;24.01
75740;BME280;64357;51.344;6.550;2023-06-10T12:37:29;100916.72;;;33.23;23.86
75740;BME280;64357;51.344;6.550;2023-06-10T12:39:58;100913.81;;;32.93;24.73
75740;BME280;64357;51.344;6.550;2023-06-10T12:42:27;100920.28;;;32.42;24.93
75740;BME280;64357;51.344;6.550;2023-06-10T12:44:55;100922.25;;;31.90;25.60
75740;BME280;64357;51.344;6.550;2023-06-10T12:47:32;100917.72;;;31.81;24.86
75740;BME280;64357;51.344;6.550;2023-06-10T12:50:01;100914.00;;;31.68;25.50
75740;BME280;64357;51.344;6.550;2023-06-10T12:52:26;100924.22;;;32.06;24.73
75740;BME280;64357;51.344;6.550;2023-06-10T12:54:54;100894.09;;;31.92;25.15
75740;BME280;64357;51.344;6.550;2023-06-10T12:57:22;100914.22;;;31.83;25.98
75740;BME280;64357;51.344;6.550;2023-06-10T12:59:51;100917.53;;;31.70;25.73
75740;BME280;64357;51.344;6.550;2023-06-10T13:02:22;100910.44;;;31.66;25.89
75740;BME280;64357;51.344;6.550;2023-06-10T13:04:52;100923.44;;;31.52;26.42
75740;BME280;64357;51.344;6.550;2023-06-10T13:07:17;100914.81;;;31.64;25.43
75740;BME280;64357;51.344;6.550;2023-06-10T13:09:43;100917.00;;;31.35;26.29
75740;BME280;64357;51.344;6.550;2023-06-10T13:12:09;100922.03;;;31.20;26.78
75740;BME280;64357;51.344;6.550;2023-06-10T13:14:39;100922.38;;;31.41;26.67
75740;BME280;64357;51.344;6.550;2023-06-10T13:17:05;100917.34;;;31.55;26.38
75740;BME280;64357;51.344;6.550;2023-06-10T13:19:33;100912.16;;;31.63;26.46
75740;BME280;64357;51.344;6.550;2023-06-10T13:21:59;100908.75;;;31.71;26.04
75740;BME280;64357;51.344;6.550;2023-06-10T13:24:24;100918.06;;;31.45;25.80
75740;BME280;64357;51.344;6.550;2023-06-10T13:26:53;100908.25;;;31.38;26.11
75740;BME280;64357;51.344;6.550;2023-06-10T13:29:20;100904.97;;;31.01;26.79
75740;BME280;64357;51.344;6.550;2023-06-10T13:31:45;100904.88;;;31.48;26.51
75740;BME280;64357;51.344;6.550;2023-06-10T13:34:10;100912.84;;;31.49;25.85
75740;BME280;64357;51.344;6.550;2023-06-10T13:36:36;100889.81;;;31.42;25.94
75740;BME280;64357;51.344;6.550;2023-06-10T13:39:07;100908.72;;;31.68;26.37